Time;durP1;ratioP1;P1;durP2;ratioP2;P2;SDS_P1;SDS_P2;PMS_P1;PMS_P2;Temp;Humidity;BMP_temperature;BMP_pressure;BME280_temperature;BME280_humidity;BME280_pressure;Samples;Min_cycle;Max_cycle;Signal;HPM_P1;HPM_P2
2021/07/31 00:01:10;;;;;;;10.70;6.00;;;18.50;97.30;;;;;;4993437;28;20448;-84
2021/07/31 00:03:36;;;;;;;10.97;7.43;;;18.50;97.30;;;;;;4993627;28;20273;-85
2021/07/31 00:06:02;;;;;;;11.53;7.07;;;18.50;97.30;;;;;;4993669;28;20240;-82
2021/07/31 00:08:31;;;;;;;14.53;7.93;;;18.50;97.30;;;;;;4993493;28;20418;-84
2021/07/31 00:10:56;;;;;;;8.50;5.67;;;18.50;97.30;;;;;;4994373;28;20193;-83
2021/07/31 00:13:23;;;;;;;14.80;5.50;;;18.50;97.30;;;;;;4997685;28;20930;-82
2021/07/31 00:15:49;;;;;;;11.33;6.40;;;18.50;97.30;;;;;;4999255;28;20210;-82
2021/07/31 00:18:15;;;;;;;10.40;6.00;;;18.50;97.30;;;;;;4994893;28;20429;-84
2021/07/31 00:20:41;;;;;;;13.43;6.20;;;18.60;97.30;;;;;;4995167;28;20535;-83
2021/07/31 00:23:07;;;;;;;13.50;5.37;;;18.70;97.30;;;;;;4995220;28;20182;-83
2021/07/31 00:25:33;;;;;;;11.60;5.20;;;18.70;97.30;;;;;;4995311;28;20192;-83
2021/07/31 00:27:59;;;;;;;17.70;5.60;;;18.80;97.30;;;;;;4996194;28;20539;-82
2021/07/31 00:30:26;;;;;;;9.33;6.07;;;18.80;97.30;;;;;;4998298;28;20942;-82
2021/07/31 00:32:52;;;;;;;14.23;5.53;;;18.80;97.30;;;;;;4998971;28;20193;-82
2021/07/31 00:35:18;;;;;;;13.80;6.00;;;18.80;97.30;;;;;;4995955;28;20596;-82
2021/07/31 00:37:43;;;;;;;12.23;5.33;;;18.90;97.30;;;;;;4996980;28;20428;-82
2021/07/31 00:40:09;;;;;;;8.03;5.50;;;18.90;97.30;;;;;;4998172;28;20272;-85
2021/07/31 00:42:42;;;;;;;9.40;5.43;;;18.90;97.30;;;;;;4977528;28;20198;-81
2021/07/31 00:45:09;;;;;;;11.13;5.20;;;19.00;97.30;;;;;;4989595;28;20182;-83
2021/07/31 00:47:34;;;;;;;9.80;5.00;;;19.00;97.30;;;;;;4997836;28;20433;-83
2021/07/31 00:50:01;;;;;;;9.60;4.67;;;19.10;97.30;;;;;;4999345;28;20436;-82
2021/07/31 00:52:26;;;;;;;8.30;5.00;;;19.10;97.30;;;;;;4999196;28;20202;-83
2021/07/31 00:54:54;;;;;;;7.40;4.93;;;19.20;97.30;;;;;;4997095;28;21049;-83
2021/07/31 00:57:22;;;;;;;8.90;4.67;;;19.20;97.30;;;;;;4997548;28;20237;-83
2021/07/31 00:59:48;;;;;;;11.30;5.13;;;19.20;97.30;;;;;;4997324;28;20429;-83
2021/07/31 01:02:13;;;;;;;10.70;5.17;;;19.30;97.30;;;;;;4996817;28;20455;-81
2021/07/31 01:04:39;;;;;;;7.30;4.50;;;19.30;97.30;;;;;;4997414;28;20435;-82
2021/07/31 01:07:05;;;;;;;9.30;5.30;;;19.40;97.30;;;;;;4997881;28;20229;-83
2021/07/31 01:09:31;;;;;;;7.50;4.50;;;19.40;97.30;;;;;;4998190;28;20428;-82
2021/07/31 01:11:56;;;;;;;12.63;5.30;;;19.40;97.30;;;;;;4997753;28;20204;-82
2021/07/31 01:14:22;;;;;;;9.50;5.27;;;19.50;97.30;;;;;;5000976;28;20256;-82
2021/07/31 01:16:47;;;;;;;7.10;5.13;;;19.50;97.30;;;;;;5001231;28;20201;-82
2021/07/31 01:19:13;;;;;;;9.77;5.13;;;19.50;97.30;;;;;;5001893;28;20170;-84
2021/07/31 01:21:48;;;;;;;12.10;5.90;;;19.50;97.30;;;;;;5001123;28;20296;-83
2021/07/31 01:24:15;;;;;;;9.73;5.60;;;19.50;97.30;;;;;;5001491;28;20178;-82
2021/07/31 01:26:46;;;;;;;10.37;5.40;;;19.40;97.30;;;;;;4996559;28;20431;-84
2021/07/31 01:29:13;;;;;;;7.93;5.30;;;19.40;97.30;;;;;;4995806;28;20508;-84
2021/07/31 01:31:39;;;;;;;7.00;4.63;;;19.40;97.30;;;;;;4995630;28;20864;-84
2021/07/31 01:34:05;;;;;;;8.17;4.90;;;19.40;97.30;;;;;;4995525;28;20435;-85
2021/07/31 01:36:30;;;;;;;6.50;4.60;;;19.30;97.30;;;;;;4995961;28;20504;-86
2021/07/31 01:38:57;;;;;;;8.50;5.23;;;19.40;97.30;;;;;;4995583;28;20203;-85
2021/07/31 01:41:23;;;;;;;8.90;5.07;;;19.40;97.30;;;;;;4995899;28;20229;-84
2021/07/31 01:43:49;;;;;;;10.90;5.60;;;19.40;97.30;;;;;;4996161;28;20855;-84
2021/07/31 01:46:14;;;;;;;7.93;5.07;;;19.50;97.30;;;;;;4995627;28;20425;-84
2021/07/31 01:48:40;;;;;;;9.67;5.17;;;19.50;97.30;;;;;;4995708;28;20185;-84
2021/07/31 01:51:06;;;;;;;8.77;4.30;;;19.50;97.30;;;;;;4995742;28;20201;-85
2021/07/31 01:53:32;;;;;;;7.20;5.00;;;19.60;97.30;;;;;;4995234;28;20631;-84
2021/07/31 01:55:57;;;;;;;10.13;4.90;;;19.60;97.30;;;;;;4994784;28;20234;-83
2021/07/31 01:58:23;;;;;;;5.70;4.33;;;19.60;97.30;;;;;;5062062;23;20237;-83
2021/07/31 02:00:48;;;;;;;5.37;3.70;;;19.60;97.30;;;;;;5042473;28;20241;-81
2021/07/31 02:03:14;;;;;;;6.90;4.33;;;19.70;97.30;;;;;;5050208;28;20188;-82
2021/07/31 02:05:39;;;;;;;8.60;4.30;;;19.70;97.30;;;;;;5044656;28;20192;-81
2021/07/31 02:08:05;;;;;;;7.13;4.57;;;19.60;97.30;;;;;;5041673;28;20236;-83
2021/07/31 02:10:30;;;;;;;8.93;4.57;;;19.60;96.90;;;;;;5034452;28;20258;-82
2021/07/31 02:12:56;;;;;;;7.67;4.30;;;19.60;96.90;;;;;;5034278;28;20184;-82
2021/07/31 02:15:22;;;;;;;9.10;4.63;;;19.60;97.00;;;;;;5026250;28;20212;-83
2021/07/31 02:17:48;;;;;;;13.13;4.67;;;19.60;97.00;;;;;;5031348;28;20180;-86
2021/07/31 02:20:13;;;;;;;6.33;4.13;;;19.60;96.90;;;;;;5023528;28;20185;-82
2021/07/31 02:22:39;;;;;;;9.37;4.47;;;19.50;97.00;;;;;;5024075;28;20177;-83
2021/07/31 02:25:05;;;;;;;12.30;4.50;;;19.50;97.00;;;;;;5023323;28;20584;-84
2021/07/31 02:27:30;;;;;;;6.47;3.97;;;19.50;96.70;;;;;;5019377;28;20185;-83
2021/07/31 02:29:56;;;;;;;7.83;4.43;;;19.50;96.80;;;;;;5015257;28;20455;-82
2021/07/31 02:32:21;;;;;;;7.33;4.43;;;19.40;96.80;;;;;;5021772;28;20179;-81
2021/07/31 02:34:49;;;;;;;8.20;4.37;;;19.40;96.80;;;;;;5038588;28;20204;-83
2021/07/31 02:37:14;;;;;;;7.30;5.40;;;19.40;96.80;;;;;;5031316;28;20268;-84
2021/07/31 02:39:40;;;;;;;7.20;4.43;;;19.40;97.00;;;;;;5029092;28;21003;-84
2021/07/31 02:42:05;;;;;;;7.63;3.93;;;19.40;97.10;;;;;;5037859;28;20180;-84
2021/07/31 02:44:31;;;;;;;7.20;3.70;;;19.40;97.20;;;;;;5036497;28;20179;-83
2021/07/31 02:46:56;;;;;;;9.77;4.23;;;19.30;97.30;;;;;;5035421;28;20659;-83
2021/07/31 02:49:22;;;;;;;7.03;4.57;;;19.30;97.30;;;;;;5035663;28;20197;-83
2021/07/31 02:51:48;;;;;;;9.37;4.60;;;19.20;97.30;;;;;;5037198;28;20184;-83
2021/07/31 02:54:15;;;;;;;7.10;4.13;;;19.20;97.30;;;;;;5032425;28;20197;-82
2021/07/31 02:56:40;;;;;;;6.43;4.10;;;19.20;97.30;;;;;;5030525;28;20420;-83
2021/07/31 02:59:06;;;;;;;8.17;4.33;;;19.10;97.30;;;;;;5026989;28;20461;-84
2021/07/31 03:01:34;;;;;;;7.63;4.23;;;19.10;97.30;;;;;;5033820;28;20169;-83
2021/07/31 03:03:59;;;;;;;6.47;4.70;;;19.00;97.30;;;;;;5036232;28;20169;-84
2021/07/31 03:06:25;;;;;;;6.23;3.97;;;19.00;97.30;;;;;;5024739;28;20767;-84
2021/07/31 03:08:51;;;;;;;7.70;4.37;;;18.90;97.30;;;;;;5026559;28;20197;-83
2021/07/31 03:11:16;;;;;;;7.47;4.70;;;18.90;97.30;;;;;;5032609;28;20194;-84
2021/07/31 03:13:42;;;;;;;8.07;4.47;;;18.90;97.30;;;;;;5023007;28;20181;-84
2021/07/31 03:16:07;;;;;;;8.57;4.73;;;18.80;97.30;;;;;;5019499;28;20205;-84
2021/07/31 03:18:33;;;;;;;8.00;4.30;;;18.80;97.30;;;;;;5024174;28;20612;-83
2021/07/31 03:20:58;;;;;;;6.13;4.40;;;18.80;97.30;;;;;;5025675;28;20185;-83
2021/07/31 03:23:24;;;;;;;5.17;3.80;;;18.70;97.30;;;;;;5028996;28;20189;-84
2021/07/31 03:25:57;;;;;;;8.10;4.47;;;18.70;97.30;;;;;;5021467;28;20720;-83
2021/07/31 03:28:22;;;;;;;8.40;3.60;;;18.60;97.30;;;;;;5021768;28;20462;-84
2021/07/31 03:30:48;;;;;;;8.00;4.10;;;18.60;97.30;;;;;;5024905;28;20428;-84
2021/07/31 03:33:14;;;;;;;8.00;4.70;;;18.60;97.30;;;;;;5025422;28;20648;-83
2021/07/31 03:35:41;;;;;;;5.67;4.30;;;18.60;97.30;;;;;;5016136;28;20475;-84
2021/07/31 03:38:07;;;;;;;5.37;4.27;;;18.60;97.30;;;;;;5024566;28;20299;-84
2021/07/31 03:40:33;;;;;;;5.53;4.23;;;18.50;97.30;;;;;;5017574;28;20434;-83
2021/07/31 03:42:59;;;;;;;8.33;4.30;;;18.50;97.30;;;;;;5020954;28;20522;-83
2021/07/31 03:45:25;;;;;;;7.10;4.00;;;18.50;97.30;;;;;;5020361;28;20189;-82
2021/07/31 03:47:51;;;;;;;7.20;3.97;;;18.40;97.30;;;;;;5031216;28;20195;-83
2021/07/31 03:50:16;;;;;;;7.40;4.20;;;18.40;97.30;;;;;;5037582;28;20200;-82
2021/07/31 03:52:42;;;;;;;6.83;4.07;;;18.40;97.30;;;;;;5021377;28;20189;-83
2021/07/31 03:55:08;;;;;;;7.77;4.30;;;18.30;97.30;;;;;;5038762;28;20204;-85
2021/07/31 03:57:34;;;;;;;7.87;4.43;;;18.30;97.30;;;;;;5036767;28;20658;-84
2021/07/31 04:00:00;;;;;;;6.13;3.97;;;18.20;97.30;;;;;;5040177;28;20615;-84
2021/07/31 04:02:26;;;;;;;6.83;4.57;;;18.10;97.30;;;;;;5027457;28;20424;-84
2021/07/31 04:04:52;;;;;;;6.57;3.90;;;18.00;97.30;;;;;;5023797;28;20985;-83
2021/07/31 04:07:17;;;;;;;6.43;3.73;;;18.00;97.30;;;;;;5031952;28;20188;-83
2021/07/31 04:09:43;;;;;;;5.57;4.10;;;18.00;97.30;;;;;;5031515;28;20247;-83
2021/07/31 04:12:09;;;;;;;7.43;4.10;;;18.00;97.30;;;;;;5030204;28;20181;-83
2021/07/31 04:14:35;;;;;;;5.43;4.00;;;18.00;97.30;;;;;;5021148;28;20834;-83
2021/07/31 04:17:01;;;;;;;6.60;3.53;;;18.00;97.30;;;;;;5019891;28;20185;-83
2021/07/31 04:19:26;;;;;;;7.47;3.57;;;18.00;97.30;;;;;;5024934;28;20192;-83
2021/07/31 04:21:56;;;;;;;8.10;3.60;;;18.00;97.30;;;;;;5023007;28;20519;-84
2021/07/31 04:24:22;;;;;;;6.33;3.50;;;18.00;97.30;;;;;;5023309;28;20598;-83
2021/07/31 04:26:48;;;;;;;6.83;3.70;;;18.00;97.30;;;;;;5024065;28;20527;-83
2021/07/31 04:29:14;;;;;;;7.53;3.90;;;18.00;97.30;;;;;;5023375;28;20882;-84
2021/07/31 04:31:40;;;;;;;6.27;3.60;;;18.00;97.30;;;;;;5024900;28;20184;-84
2021/07/31 04:34:05;;;;;;;6.50;3.80;;;18.00;97.30;;;;;;5021344;28;20502;-84
2021/07/31 04:36:34;;;;;;;6.20;3.93;;;18.00;97.30;;;;;;5027410;28;20181;-83
2021/07/31 04:39:01;;;;;;;9.37;3.80;;;18.10;97.30;;;;;;5031393;28;20619;-84
2021/07/31 04:41:26;;;;;;;9.60;4.00;;;18.10;97.30;;;;;;5034062;28;20872;-84
2021/07/31 04:43:52;;;;;;;10.50;3.93;;;18.10;97.30;;;;;;5034164;28;20463;-85
2021/07/31 04:46:17;;;;;;;7.90;3.80;;;18.10;97.30;;;;;;5034727;28;20264;-84
2021/07/31 04:48:43;;;;;;;7.57;3.53;;;18.10;97.30;;;;;;5032102;28;20234;-84
2021/07/31 04:51:09;;;;;;;7.30;3.77;;;18.10;97.30;;;;;;5025591;28;20184;-84
2021/07/31 04:53:35;;;;;;;6.20;3.73;;;18.00;97.30;;;;;;5037607;28;20178;-84
2021/07/31 04:56:01;;;;;;;5.70;3.63;;;18.00;97.30;;;;;;5024904;28;20482;-84
2021/07/31 04:58:26;;;;;;;4.57;3.37;;;18.00;97.30;;;;;;5035090;28;20973;-83
2021/07/31 05:00:54;;;;;;;6.40;3.83;;;18.10;97.30;;;;;;5039359;28;20211;-83
2021/07/31 05:03:20;;;;;;;8.73;4.17;;;18.20;97.30;;;;;;5040118;28;20177;-83
2021/07/31 05:05:46;;;;;;;10.23;3.93;;;18.30;97.30;;;;;;5030533;28;20469;-83
2021/07/31 05:08:13;;;;;;;7.47;3.93;;;18.30;97.30;;;;;;5040246;28;20208;-83
2021/07/31 05:10:40;;;;;;;5.53;3.60;;;18.40;97.30;;;;;;5039361;28;20423;-84
2021/07/31 05:13:06;;;;;;;5.83;3.63;;;18.50;97.30;;;;;;5030045;28;20577;-83
2021/07/31 05:15:31;;;;;;;6.20;3.57;;;18.50;97.30;;;;;;5023134;28;20489;-82
2021/07/31 05:17:56;;;;;;;4.77;3.53;;;18.60;97.30;;;;;;5027844;28;20646;-84
2021/07/31 05:20:22;;;;;;;5.23;3.43;;;18.60;97.30;;;;;;5037436;28;20176;-84
2021/07/31 05:22:47;;;;;;;6.40;3.60;;;18.70;97.30;;;;;;5037284;28;20215;-83
2021/07/31 05:25:13;;;;;;;6.20;3.23;;;18.80;97.30;;;;;;5026784;28;20186;-84
2021/07/31 05:27:38;;;;;;;5.10;2.90;;;18.80;97.30;;;;;;5035984;28;20250;-84
2021/07/31 05:30:05;;;;;;;4.13;3.20;;;18.90;97.30;;;;;;5019188;28;20712;-84
2021/07/31 05:32:33;;;;;;;3.70;3.00;;;18.90;97.30;;;;;;5030207;28;20666;-84
2021/07/31 05:34:59;;;;;;;3.60;2.97;;;19.00;97.30;;;;;;5024548;28;20493;-82
2021/07/31 05:37:24;;;;;;;6.50;3.80;;;19.00;96.90;;;;;;5021598;28;20423;-84
2021/07/31 05:39:50;;;;;;;5.33;3.10;;;19.10;96.40;;;;;;5038666;28;20306;-83
2021/07/31 05:42:15;;;;;;;6.80;3.20;;;19.10;96.30;;;;;;5043233;28;20172;-84
2021/07/31 05:44:41;;;;;;;6.57;3.47;;;19.10;96.80;;;;;;5039086;28;20225;-83
2021/07/31 05:47:06;;;;;;;5.10;3.03;;;19.20;96.00;;;;;;5048904;28;20246;-85
2021/07/31 05:49:32;;;;;;;4.80;2.80;;;19.20;96.40;;;;;;5034065;28;20264;-84
2021/07/31 05:51:58;;;;;;;7.17;3.07;;;19.30;96.20;;;;;;5048193;28;20728;-84
2021/07/31 05:54:23;;;;;;;4.43;2.90;;;19.30;96.00;;;;;;5045248;28;20224;-84
2021/07/31 05:56:49;;;;;;;3.40;2.60;;;19.40;95.50;;;;;;5049448;28;20182;-82
2021/07/31 05:59:16;;;;;;;5.53;2.77;;;19.40;94.60;;;;;;5046391;28;20218;-84
2021/07/31 06:01:42;;;;;;;8.77;2.27;;;19.50;94.30;;;;;;5044279;28;20449;-84
2021/07/31 06:04:07;;;;;;;3.67;2.10;;;19.60;93.80;;;;;;5039611;28;20513;-83
2021/07/31 06:06:33;;;;;;;4.50;2.53;;;19.60;93.80;;;;;;5043248;28;20215;-84
2021/07/31 06:08:59;;;;;;;3.67;2.50;;;19.70;92.70;;;;;;5045078;28;20538;-83
2021/07/31 06:11:25;;;;;;;4.57;2.30;;;19.70;92.00;;;;;;5033788;28;20444;-83
2021/07/31 06:13:51;;;;;;;5.53;2.40;;;19.80;91.60;;;;;;5043625;28;20207;-84
2021/07/31 06:16:16;;;;;;;4.20;2.30;;;19.80;91.30;;;;;;5036364;28;20502;-84
2021/07/31 06:18:42;;;;;;;3.50;2.27;;;19.90;91.60;;;;;;5036779;28;20208;-85
2021/07/31 06:21:15;;;;;;;3.10;2.07;;;20.00;90.80;;;;;;5024227;28;20185;-84
2021/07/31 06:23:41;;;;;;;3.87;1.90;;;20.00;90.10;;;;;;5037099;28;20248;-84
2021/07/31 06:26:07;;;;;;;4.33;2.17;;;20.10;90.30;;;;;;5043611;28;20439;-85
2021/07/31 06:28:33;;;;;;;3.10;2.37;;;20.10;89.40;;;;;;5029374;28;20216;-82
2021/07/31 06:30:58;;;;;;;4.33;2.80;;;20.20;89.80;;;;;;5032924;28;20550;-83
2021/07/31 06:33:24;;;;;;;5.43;1.97;;;20.20;89.30;;;;;;5039495;28;20192;-82
2021/07/31 06:35:49;;;;;;;2.93;2.10;;;20.30;89.60;;;;;;5039941;28;20219;-83
2021/07/31 06:38:15;;;;;;;5.77;2.07;;;20.40;88.60;;;;;;5033845;28;20196;-82
2021/07/31 06:40:42;;;;;;;4.20;1.83;;;20.50;87.80;;;;;;5032145;28;20525;-83
2021/07/31 06:43:08;;;;;;;3.10;2.07;;;20.50;87.10;;;;;;5027565;28;20191;-83
2021/07/31 06:45:33;;;;;;;4.20;2.27;;;20.50;87.20;;;;;;5028913;28;20444;-83
2021/07/31 06:47:59;;;;;;;8.40;2.30;;;20.60;85.60;;;;;;5036217;28;20183;-83
2021/07/31 06:50:24;;;;;;;3.60;1.80;;;20.60;85.40;;;;;;5048971;28;20222;-84
2021/07/31 06:52:50;;;;;;;8.50;2.23;;;20.70;85.90;;;;;;5049803;28;20612;-82
2021/07/31 06:55:15;;;;;;;3.83;2.17;;;20.80;86.60;;;;;;5045806;28;20219;-82
2021/07/31 06:57:41;;;;;;;5.50;2.30;;;20.80;86.00;;;;;;5034893;28;20271;-83
2021/07/31 07:00:07;;;;;;;5.77;2.17;;;20.90;86.50;;;;;;5036612;28;20730;-82
2021/07/31 07:02:32;;;;;;;5.50;2.00;;;21.00;86.30;;;;;;5039275;28;20183;-84
2021/07/31 07:04:58;;;;;;;8.63;2.30;;;21.10;85.90;;;;;;5046646;28;20442;-84
2021/07/31 07:07:23;;;;;;;2.40;2.07;;;21.10;85.70;;;;;;5035785;28;20628;-84
2021/07/31 07:09:49;;;;;;;8.10;2.40;;;21.10;85.20;;;;;;5046196;28;20200;-82
2021/07/31 07:12:14;;;;;;;4.80;1.87;;;21.10;86.00;;;;;;5037594;28;20340;-82
2021/07/31 07:14:39;;;;;;;3.37;2.00;;;21.20;86.00;;;;;;5040368;28;20200;-82
2021/07/31 07:17:05;;;;;;;3.23;2.20;;;21.30;85.20;;;;;;5025008;28;20170;-83
2021/07/31 07:19:31;;;;;;;3.03;2.10;;;21.30;84.50;;;;;;5023692;28;20188;-83
2021/07/31 07:21:57;;;;;;;7.10;1.97;;;21.40;85.20;;;;;;5035061;28;20231;-83
2021/07/31 07:24:22;;;;;;;3.20;1.97;;;21.50;84.40;;;;;;5032001;28;20435;-82
2021/07/31 07:26:48;;;;;;;2.30;1.60;;;21.50;83.80;;;;;;5034641;28;20274;-82
2021/07/31 07:29:14;;;;;;;3.07;1.70;;;21.50;83.80;;;;;;5022013;28;20204;-81
2021/07/31 07:31:40;;;;;;;4.17;2.07;;;21.50;84.90;;;;;;5037132;28;20183;-82
2021/07/31 07:34:05;;;;;;;5.30;2.00;;;21.60;84.80;;;;;;5041829;28;20427;-83
2021/07/31 07:36:30;;;;;;;3.00;1.73;;;21.70;84.00;;;;;;5037433;28;20227;-82
2021/07/31 07:38:56;;;;;;;7.03;2.27;;;21.80;83.20;;;;;;5028923;28;20189;-82
2021/07/31 07:41:21;;;;;;;5.80;2.20;;;21.80;83.80;;;;;;5020471;28;20552;-82
2021/07/31 07:43:47;;;;;;;3.93;1.80;;;21.80;83.30;;;;;;5019542;28;20177;-83
2021/07/31 07:46:14;;;;;;;5.00;2.30;;;21.90;83.60;;;;;;5029271;28;20223;-82
2021/07/31 07:48:41;;;;;;;1.73;1.70;;;22.00;83.60;;;;;;5025344;28;20200;-83
2021/07/31 07:51:06;;;;;;;3.93;1.93;;;22.00;82.70;;;;;;5032593;28;21035;-83
2021/07/31 07:53:32;;;;;;;2.93;2.10;;;22.00;82.50;;;;;;5034716;28;20431;-83
2021/07/31 07:55:58;;;;;;;2.27;1.70;;;22.00;83.00;;;;;;5031613;28;20196;-82
2021/07/31 07:58:23;;;;;;;2.73;1.70;;;21.90;82.50;;;;;;5022942;28;20591;-84
2021/07/31 08:00:49;;;;;;;5.83;1.73;;;21.80;82.50;;;;;;5019786;28;20227;-82
2021/07/31 08:03:14;;;;;;;11.60;1.90;;;21.90;82.10;;;;;;5022980;28;20172;-84
2021/07/31 08:05:40;;;;;;;3.90;1.60;;;22.00;82.70;;;;;;5031862;28;20185;-83
2021/07/31 08:08:06;;;;;;;6.77;2.10;;;22.00;81.60;;;;;;5027476;28;20208;-82
2021/07/31 08:10:32;;;;;;;5.43;1.70;;;22.00;81.60;;;;;;5025495;28;20181;-82
2021/07/31 08:12:58;;;;;;;81.57;4.53;;;22.00;81.70;;;;;;5031550;28;20438;-80
2021/07/31 08:15:24;;;;;;;6.17;2.10;;;21.90;81.10;;;;;;5027062;28;20463;-81
2021/07/31 08:17:49;;;;;;;5.37;2.00;;;22.00;82.10;;;;;;5033762;28;20176;-80
2021/07/31 08:20:15;;;;;;;4.00;1.77;;;21.90;82.10;;;;;;5029070;28;20180;-79
2021/07/31 08:22:40;;;;;;;1.90;1.63;;;22.00;82.90;;;;;;5026471;28;20188;-80
2021/07/31 08:25:07;;;;;;;1.93;1.73;;;22.10;83.10;;;;;;5024951;28;20177;-81
2021/07/31 08:27:33;;;;;;;3.77;1.87;;;22.20;82.70;;;;;;5024522;28;20193;-81
2021/07/31 08:29:58;;;;;;;1.57;1.50;;;22.30;81.50;;;;;;5031500;28;20439;-81
2021/07/31 08:32:24;;;;;;;7.17;1.97;;;22.30;81.40;;;;;;5032760;28;20259;-81
2021/07/31 08:34:50;;;;;;;2.93;2.20;;;22.30;81.60;;;;;;5034514;28;20569;-82
2021/07/31 08:37:16;;;;;;;4.23;1.83;;;22.30;82.50;;;;;;5035936;28;20169;-81
2021/07/31 08:39:42;;;;;;;2.83;1.70;;;22.30;81.70;;;;;;5015486;28;20454;-81
2021/07/31 08:42:09;;;;;;;5.17;1.63;;;22.40;80.50;;;;;;5018735;28;20494;-81
2021/07/31 08:44:35;;;;;;;3.00;1.60;;;22.40;80.80;;;;;;5017512;28;20273;-81
2021/07/31 08:47:03;;;;;;;2.53;1.43;;;22.50;81.00;;;;;;5017396;28;20452;-81
2021/07/31 08:49:31;;;;;;;6.27;2.00;;;22.60;80.70;;;;;;5019121;28;20471;-80
2021/07/31 08:51:58;;;;;;;5.90;1.70;;;22.60;80.20;;;;;;5019651;28;20442;-82
2021/07/31 08:54:24;;;;;;;3.20;1.40;;;22.60;79.70;;;;;;5035946;28;20511;-83
2021/07/31 08:56:49;;;;;;;1.77;1.70;;;22.60;78.70;;;;;;5035430;28;20715;-82
2021/07/31 08:59:15;;;;;;;3.30;2.27;;;22.50;79.60;;;;;;5020662;28;20699;-81
2021/07/31 09:01:40;;;;;;;6.40;1.90;;;22.60;79.80;;;;;;5015361;28;20203;-82
2021/07/31 09:04:15;;;;;;;2.67;1.43;;;22.60;80.50;;;;;;5014882;28;20212;-80
2021/07/31 09:06:40;;;;;;;2.10;1.50;;;22.70;78.80;;;;;;5017982;28;20254;-81
2021/07/31 09:09:07;;;;;;;2.80;1.70;;;22.80;80.00;;;;;;5015624;28;20444;-81
2021/07/31 09:11:32;;;;;;;1.87;1.30;;;22.90;80.60;;;;;;5016983;28;20710;-81
2021/07/31 09:14:15;;;;;;;1.87;1.70;;;22.90;79.30;;;;;;5015365;28;20420;-82
2021/07/31 09:16:43;;;;;;;2.57;1.50;;;23.00;79.30;;;;;;5025643;28;20216;-81
2021/07/31 09:19:10;;;;;;;2.70;1.47;;;22.90;78.60;;;;;;5035605;28;20439;-81
2021/07/31 09:21:36;;;;;;;2.17;1.50;;;22.90;78.90;;;;;;5037307;28;20418;-81
2021/07/31 09:24:02;;;;;;;4.03;1.50;;;22.90;79.00;;;;;;5037802;28;20419;-82
2021/07/31 09:26:43;;;;;;;2.80;1.57;;;22.90;78.40;;;;;;5036377;28;20260;-81
2021/07/31 09:29:11;;;;;;;2.60;1.33;;;22.90;78.30;;;;;;5037058;28;20423;-82
2021/07/31 09:31:39;;;;;;;3.87;1.80;;;23.00;78.20;;;;;;5036433;28;20411;-82
2021/07/31 09:34:06;;;;;;;4.17;1.50;;;23.10;78.70;;;;;;5035019;28;20475;-82
2021/07/31 09:36:42;;;;;;;1.83;1.60;;;23.20;78.70;;;;;;5032108;28;20459;-82
2021/07/31 09:39:10;;;;;;;2.30;1.50;;;23.30;77.30;;;;;;5020669;28;20462;-81
2021/07/31 09:41:40;;;;;;;2.50;1.67;;;23.40;77.30;;;;;;5033615;28;20843;-82
2021/07/31 09:44:10;;;;;;;3.00;1.60;;;23.50;78.20;;;;;;5038434;28;20513;-81
2021/07/31 09:46:54;;;;;;;1.50;1.40;;;23.70;76.90;;;;;;5038504;28;20486;-81
2021/07/31 09:49:22;;;;;;;4.53;1.73;;;23.90;78.40;;;;;;5038804;28;20438;-82
2021/07/31 09:51:50;;;;;;;2.00;1.90;;;24.00;76.50;;;;;;5027246;28;20447;-81
2021/07/31 09:54:18;;;;;;;6.30;1.57;;;24.00;75.60;;;;;;5019500;28;20447;-82
2021/07/31 09:56:52;;;;;;;2.70;1.60;;;24.10;75.90;;;;;;5018977;28;20435;-81
2021/07/31 09:59:20;;;;;;;3.47;2.00;;;23.90;75.10;;;;;;5020674;28;20532;-82
2021/07/31 10:02:03;;;;;;;3.87;1.70;;;23.80;76.30;;;;;;5020294;28;20436;-82
2021/07/31 10:04:32;;;;;;;2.53;1.80;;;23.90;77.40;;;;;;5021575;28;20462;-81
2021/07/31 10:07:02;;;;;;;3.93;1.80;;;24.10;76.60;;;;;;5020167;28;20871;-81
2021/07/31 10:09:28;;;;;;;2.60;1.80;;;24.20;76.40;;;;;;5021489;28;20421;-82
2021/07/31 10:11:55;;;;;;;2.20;1.53;;;24.20;76.50;;;;;;5021666;28;20410;-82
2021/07/31 10:14:23;;;;;;;2.67;1.70;;;24.10;76.40;;;;;;5019860;28;20420;-82
2021/07/31 10:16:51;;;;;;;2.80;2.00;;;24.00;76.70;;;;;;5030048;28;20415;-82
2021/07/31 10:19:17;;;;;;;7.43;2.10;;;24.20;76.40;;;;;;5038699;28;20439;-81
2021/07/31 10:21:47;;;;;;;3.40;2.23;;;24.20;75.70;;;;;;5029237;28;20905;-82
2021/07/31 10:24:13;;;;;;;1.73;1.70;;;24.20;75.30;;;;;;5019482;28;20432;-81
2021/07/31 10:26:39;;;;;;;6.70;1.80;;;24.10;75.70;;;;;;5020114;28;20969;-82
2021/07/31 10:29:26;;;;;;;2.43;1.70;;;24.10;75.90;;;;;;5018351;28;20638;-82
2021/07/31 10:31:52;;;;;;;2.90;2.30;;;24.10;75.50;;;;;;5035884;28;20191;-81
2021/07/31 10:34:46;;;;;;;4.10;1.67;;;23.90;75.30;;;;;;5029785;28;20472;-81
2021/07/31 10:37:34;;;;;;;4.37;2.17;;;23.80;75.20;;;;;;5030977;28;20235;-81
2021/07/31 10:40:01;;;;;;;3.03;1.90;;;23.70;76.10;;;;;;5030066;28;20520;-82
2021/07/31 10:42:46;;;;;;;1.97;1.90;;;23.70;76.60;;;;;;5019879;28;20416;-81
2021/07/31 10:45:15;;;;;;;6.90;1.87;;;24.10;77.60;;;;;;5017766;28;20484;-82
2021/07/31 10:47:41;;;;;;;2.67;1.80;;;24.20;76.00;;;;;;5020606;28;20515;-82
2021/07/31 10:50:22;;;;;;;5.23;1.83;;;24.40;75.80;;;;;;5039313;28;20435;-82
2021/07/31 10:53:00;;;;;;;3.10;1.80;;;24.50;76.10;;;;;;5039033;28;20525;-82
2021/07/31 10:55:36;;;;;;;2.20;1.57;;;24.70;75.20;;;;;;5040440;28;20562;-82
2021/07/31 10:58:17;;;;;;;3.20;1.83;;;24.70;76.00;;;;;;5039900;28;20415;-81
2021/07/31 11:00:45;;;;;;;3.40;2.07;;;24.50;75.60;;;;;;5041811;28;20437;-82
2021/07/31 11:03:28;;;;;;;2.80;2.00;;;24.10;75.10;;;;;;5037613;28;20407;-82
2021/07/31 11:06:03;;;;;;;2.20;1.73;;;23.80;76.40;;;;;;5030457;28;21011;-82
2021/07/31 11:08:31;;;;;;;2.97;1.53;;;23.60;76.50;;;;;;5019485;28;20436;-84
2021/07/31 11:11:20;;;;;;;2.27;1.60;;;23.70;77.20;;;;;;5019646;28;20423;-82
2021/07/31 11:13:46;;;;;;;3.30;1.50;;;23.80;76.80;;;;;;5020654;28;20447;-82
2021/07/31 11:16:15;;;;;;;4.03;1.93;;;24.20;78.60;;;;;;5023742;28;20460;-82
2021/07/31 11:18:44;;;;;;;2.90;1.53;;;24.50;76.00;;;;;;5027383;28;20223;-83
2021/07/31 11:21:19;;;;;;;1.53;1.20;;;24.60;76.90;;;;;;5022994;28;20424;-81
2021/07/31 11:23:56;;;;;;;5.23;2.10;;;24.60;76.00;;;;;;5022499;28;20435;-81
2021/07/31 11:26:34;;;;;;;1.70;1.60;;;24.30;75.70;;;;;;5023563;28;20416;-81
2021/07/31 11:29:00;;;;;;;3.03;1.70;;;24.10;76.10;;;;;;5021412;28;20443;-82
2021/07/31 11:31:26;;;;;;;2.40;1.53;;;24.00;76.30;;;;;;5023982;28;20459;-82
2021/07/31 11:34:06;;;;;;;3.27;1.50;;;24.00;75.80;;;;;;5018134;28;20416;-81
2021/07/31 11:36:32;;;;;;;3.47;1.60;;;24.20;76.80;;;;;;5032178;28;20210;-80
2021/07/31 11:39:01;;;;;;;1.80;1.50;;;24.40;76.20;;;;;;5027929;28;20459;-82
2021/07/31 11:41:27;;;;;;;3.93;1.70;;;24.30;75.70;;;;;;5033493;28;20427;-83
2021/07/31 11:43:58;;;;;;;3.07;1.40;;;24.40;76.00;;;;;;5039657;28;20407;-83
2021/07/31 11:46:46;;;;;;;2.53;1.70;;;24.40;76.40;;;;;;5038133;28;20415;-82
2021/07/31 11:49:23;;;;;;;3.97;1.60;;;24.40;76.80;;;;;;5037129;28;20447;-82
2021/07/31 11:51:50;;;;;;;4.47;1.80;;;24.40;75.60;;;;;;5017242;28;20408;-81
2021/07/31 11:54:16;;;;;;;2.40;1.30;;;24.50;75.20;;;;;;5017700;28;20400;-83
2021/07/31 11:56:45;;;;;;;1.77;1.40;;;24.60;75.80;;;;;;5035159;28;20455;-82
2021/07/31 11:59:12;;;;;;;2.17;1.37;;;24.70;75.40;;;;;;5021015;28;20228;-83
2021/07/31 12:01:45;;;;;;;2.30;1.30;;;24.90;74.60;;;;;;5018884;28;20441;-83
2021/07/31 12:04:11;;;;;;;4.73;1.40;;;24.70;75.20;;;;;;5016689;28;20419;-82
2021/07/31 12:06:46;;;;;;;2.40;1.73;;;24.70;75.90;;;;;;5031428;28;21020;-83
2021/07/31 12:09:22;;;;;;;2.30;1.30;;;24.70;75.60;;;;;;5026996;28;20247;-83
2021/07/31 12:11:53;;;;;;;1.40;1.40;;;24.60;74.60;;;;;;5025292;28;20419;-82
2021/07/31 12:14:36;;;;;;;4.43;1.50;;;24.50;75.40;;;;;;5029049;28;20953;-82
2021/07/31 12:17:25;;;;;;;2.87;1.43;;;24.60;76.00;;;;;;5018735;28;20451;-83
2021/07/31 12:19:56;;;;;;;3.50;1.63;;;24.90;75.30;;;;;;5016280;28;20428;-82
2021/07/31 12:22:26;;;;;;;1.90;1.50;;;24.80;75.20;;;;;;5017334;28;20416;-83
2021/07/31 12:25:05;;;;;;;1.70;1.30;;;24.70;75.20;;;;;;5017620;28;20423;-82
2021/07/31 12:27:54;;;;;;;1.70;1.57;;;24.60;76.10;;;;;;5022258;28;20457;-83
2021/07/31 12:30:25;;;;;;;1.83;1.53;;;24.50;76.00;;;;;;5038694;28;20441;-83
2021/07/31 12:32:51;;;;;;;1.43;1.40;;;24.50;76.80;;;;;;5037052;28;20723;-82
2021/07/31 12:35:36;;;;;;;1.67;1.20;;;24.80;77.20;;;;;;5036502;28;20556;-83
2021/07/31 12:38:03;;;;;;;3.03;1.40;;;25.10;76.50;;;;;;5036271;28;20184;-83
2021/07/31 12:40:29;;;;;;;3.57;1.70;;;25.20;75.40;;;;;;5029668;28;20791;-82
2021/07/31 12:42:55;;;;;;;2.80;1.37;;;25.40;75.60;;;;;;5017075;28;20957;-82
2021/07/31 12:45:20;;;;;;;2.60;1.40;;;25.60;75.20;;;;;;5017995;28;20181;-81
2021/07/31 12:47:46;;;;;;;2.00;1.70;;;25.70;74.90;;;;;;5016917;28;20616;-81